Alton, Maine
Current Conditions -  °F | °C
As of 11:53 PM on Monday 26 Jan 2015 (Local Time) from KBGR Reporting Station
Overcast Overcast  
Wind Chill: -23°   Ceiling: 10000
Heat Index: -12°   Visibility: 10mi
Dew Point: -21°   Wind: 20mph
Humidity: 51%   Direction: 20°NNE
Pressure: 30.16"   Gusts: NA
Location:  45.0236°N, 68.7394°W
Report Text: KBGR 270453Z 02017KT 10SM OVC100 M12/M21 A3016 RMK AO2 SLP218 T11221206 411061250
Loading
Personal Weather Stations






























Interactive Weather Map New forecast layout! Learn more

10-Day Weather Forecast

Advertisements
Track Severe Weather on mobile